Time;durP1;ratioP1;P1;durP2;ratioP2;P2;SDS_P1;SDS_P2;PMS_P1;PMS_P2;Temp;Humidity;BMP_temperature;BMP_pressure;BME280_temperature;BME280_humidity;BME280_pressure;Samples;Min_cycle;Max_cycle;Signal;HPM_P1;HPM_P2
2021/08/28 00:01:07;;;;;;;23.25;10.30;;;14.10;91.50;;;;;;5135036;27;20482;-51
2021/08/28 00:03:33;;;;;;;14.32;7.22;;;14.20;91.30;;;;;;5135002;27;20027;-47
2021/08/28 00:05:58;;;;;;;10.02;6.88;;;14.10;91.20;;;;;;5135039;27;20439;-48
2021/08/28 00:08:24;;;;;;;14.32;7.03;;;14.00;91.60;;;;;;5135160;27;20030;-48
2021/08/28 00:10:50;;;;;;;19.33;8.05;;;13.90;91.70;;;;;;5135009;27;20027;-47
2021/08/28 00:13:16;;;;;;;10.10;6.93;;;14.00;92.00;;;;;;5116390;27;20116;-48
2021/08/28 00:15:41;;;;;;;18.00;7.40;;;14.10;91.70;;;;;;5116271;27;20019;-47
2021/08/28 00:18:07;;;;;;;18.48;8.20;;;14.10;91.50;;;;;;5134944;27;20027;-48
2021/08/28 00:20:37;;;;;;;20.02;8.95;;;14.10;91.50;;;;;;5134888;27;20047;-50
2021/08/28 00:23:04;;;;;;;15.07;8.90;;;14.10;91.50;;;;;;5134675;27;20500;-49
2021/08/28 00:25:30;;;;;;;14.55;8.82;;;13.90;91.50;;;;;;5134568;27;20047;-47
2021/08/28 00:27:55;;;;;;;24.98;10.38;;;14.00;91.80;;;;;;5134787;27;20559;-50
2021/08/28 00:30:21;;;;;;;19.17;8.98;;;13.90;91.80;;;;;;5133736;27;20023;-50
2021/08/28 00:32:46;;;;;;;14.13;8.38;;;14.00;91.90;;;;;;5134321;27;20058;-49
2021/08/28 00:35:12;;;;;;;15.43;9.60;;;14.10;91.60;;;;;;5116012;27;20019;-49
2021/08/28 00:37:38;;;;;;;22.25;9.23;;;14.10;91.60;;;;;;5134417;27;20102;-48
2021/08/28 00:40:05;;;;;;;28.05;11.52;;;14.20;91.40;;;;;;5134411;27;20019;-49
2021/08/28 00:42:31;;;;;;;15.95;9.70;;;14.20;91.50;;;;;;5134262;27;20513;-48
2021/08/28 00:44:57;;;;;;;18.70;10.13;;;14.30;91.50;;;;;;5134279;27;20027;-48
2021/08/28 00:47:27;;;;;;;22.10;9.68;;;14.30;91.20;;;;;;5134568;27;20035;-49
2021/08/28 00:49:52;;;;;;;18.15;9.48;;;14.30;91.20;;;;;;5115744;27;20023;-49
2021/08/28 00:52:21;;;;;;;22.40;10.25;;;14.30;91.30;;;;;;5134790;27;20344;-50
2021/08/28 00:54:48;;;;;;;15.75;10.15;;;14.40;91.10;;;;;;5134191;27;20081;-49
2021/08/28 00:57:14;;;;;;;20.27;13.43;;;14.40;91.00;;;;;;5134241;27;20535;-51
2021/08/28 00:59:41;;;;;;;20.58;12.23;;;14.50;90.70;;;;;;5132655;27;20110;-48
2021/08/28 01:02:07;;;;;;;21.50;12.07;;;14.50;90.70;;;;;;5134117;27;20352;-51
2021/08/28 01:05:25;;;;;;;25.67;13.05;;;14.50;90.60;;;;;;5133789;27;20042;-49
2021/08/28 01:08:00;;;;;;;16.30;10.70;;;14.50;90.50;;;;;;5120333;27;20124;-49
2021/08/28 01:10:33;;;;;;;16.75;11.48;;;14.40;90.80;;;;;;5133995;27;20027;-53
2021/08/28 01:13:02;;;;;;;24.65;14.77;;;14.50;90.90;;;;;;5134201;27;20080;-51
2021/08/28 01:15:28;;;;;;;21.25;14.15;;;14.40;90.80;;;;;;5133954;28;20023;-47
2021/08/28 01:17:55;;;;;;;25.20;16.13;;;14.50;90.60;;;;;;5133929;28;20026;-48
2021/08/28 01:20:36;;;;;;;24.52;17.50;;;14.50;90.60;;;;;;5133621;28;20110;-48
2021/08/28 01:23:04;;;;;;;25.85;16.80;;;14.40;90.80;;;;;;5134029;28;20425;-52
2021/08/28 01:25:30;;;;;;;35.05;17.35;;;14.30;91.00;;;;;;5134076;28;20016;-47
2021/08/28 01:28:07;;;;;;;28.30;16.58;;;14.40;91.00;;;;;;5134095;28;20425;-47
2021/08/28 01:30:34;;;;;;;27.98;17.63;;;14.40;91.00;;;;;;5134153;28;20435;-49
2021/08/28 01:33:01;;;;;;;28.38;15.98;;;14.30;91.20;;;;;;5133855;28;20463;-52
2021/08/28 01:35:28;;;;;;;33.92;16.98;;;14.30;91.40;;;;;;5133517;28;20055;-48
2021/08/28 01:37:55;;;;;;;28.98;16.27;;;14.30;91.40;;;;;;5133573;28;20053;-48
2021/08/28 01:40:21;;;;;;;24.35;16.58;;;14.30;91.30;;;;;;5133994;28;20414;-48
2021/08/28 01:42:47;;;;;;;28.40;17.95;;;14.30;91.20;;;;;;5136304;27;20126;-48
2021/08/28 01:45:15;;;;;;;29.75;17.50;;;14.30;91.40;;;;;;5136637;27;20098;-52
2021/08/28 01:47:42;;;;;;;24.38;18.00;;;14.30;91.10;;;;;;5138094;27;20462;-50
2021/08/28 01:50:09;;;;;;;29.27;18.02;;;14.40;91.10;;;;;;5138046;27;20066;-49
2021/08/28 01:52:35;;;;;;;32.45;16.63;;;14.40;91.00;;;;;;5137342;27;20107;-48
2021/08/28 01:55:01;;;;;;;37.90;19.67;;;14.30;91.10;;;;;;5137602;27;20383;-48
2021/08/28 01:57:28;;;;;;;26.42;17.63;;;14.40;91.20;;;;;;5137868;27;20019;-49
2021/08/28 01:59:55;;;;;;;24.95;16.35;;;14.40;91.20;;;;;;5137835;27;20023;-49
2021/08/28 02:02:20;;;;;;;28.40;15.88;;;14.40;91.00;;;;;;5137782;27;20030;-48
2021/08/28 02:04:46;;;;;;;27.95;15.70;;;14.40;91.10;;;;;;5137476;27;20027;-49
2021/08/28 02:07:19;;;;;;;30.88;17.00;;;14.40;91.20;;;;;;5137370;27;20106;-51
2021/08/28 02:10:02;;;;;;;28.80;17.92;;;14.50;91.20;;;;;;5137670;27;20031;-51
2021/08/28 02:12:44;;;;;;;36.60;17.90;;;14.50;91.10;;;;;;5137117;27;20044;-49
2021/08/28 02:15:17;;;;;;;31.00;16.65;;;14.40;91.20;;;;;;5137418;27;20031;-48
2021/08/28 02:17:50;;;;;;;26.42;18.15;;;14.50;91.20;;;;;;5137108;27;20126;-47
2021/08/28 02:20:18;;;;;;;34.47;19.35;;;14.50;91.10;;;;;;5137282;27;20027;-48
2021/08/28 02:22:47;;;;;;;36.05;20.67;;;14.50;91.20;;;;;;5135808;27;20028;-48
2021/08/28 02:25:24;;;;;;;36.30;21.15;;;14.60;91.10;;;;;;5137084;27;20022;-52
2021/08/28 02:27:55;;;;;;;42.70;21.40;;;14.60;90.70;;;;;;5137360;27;20374;-51
2021/08/28 02:30:21;;;;;;;32.67;21.73;;;14.70;91.30;;;;;;5137289;27;20458;-62
2021/08/28 02:32:50;;;;;;;36.60;21.85;;;14.80;90.70;;;;;;5137233;27;20019;-49
2021/08/28 02:35:16;;;;;;;34.42;21.23;;;14.80;90.80;;;;;;5136807;27;20470;-50
2021/08/28 02:37:43;;;;;;;42.13;25.80;;;14.80;90.60;;;;;;5137075;27;20027;-51
2021/08/28 02:40:12;;;;;;;35.92;20.60;;;14.70;91.10;;;;;;5135756;27;20026;-49
2021/08/28 02:42:39;;;;;;;37.63;20.63;;;14.80;90.40;;;;;;5135333;27;20019;-51
2021/08/28 02:45:06;;;;;;;36.45;18.52;;;14.80;90.50;;;;;;5136640;27;20022;-48
2021/08/28 02:47:33;;;;;;;29.15;18.60;;;14.80;90.40;;;;;;5136840;27;20350;-51
2021/08/28 02:50:00;;;;;;;33.63;19.77;;;14.80;90.50;;;;;;5136517;27;20023;-49
2021/08/28 02:52:28;;;;;;;39.15;18.92;;;14.80;90.70;;;;;;5136284;27;20062;-48
2021/08/28 02:54:58;;;;;;;30.60;18.52;;;14.80;91.00;;;;;;5135315;27;20027;-55
2021/08/28 02:57:26;;;;;;;36.83;18.58;;;14.80;90.90;;;;;;5136622;27;20024;-47
2021/08/28 02:59:52;;;;;;;35.83;18.55;;;14.80;90.80;;;;;;5134877;27;20102;-47
2021/08/28 03:02:19;;;;;;;25.80;17.38;;;14.80;90.80;;;;;;5134988;27;20019;-47
2021/08/28 03:04:46;;;;;;;32.88;18.75;;;14.90;90.70;;;;;;5136246;27;20042;-48
2021/08/28 03:07:13;;;;;;;24.85;17.85;;;14.90;90.60;;;;;;5136168;27;20023;-48
2021/08/28 03:09:39;;;;;;;39.97;19.35;;;15.00;90.30;;;;;;5136106;27;20015;-47
2021/08/28 03:12:05;;;;;;;30.77;17.52;;;15.00;90.50;;;;;;5135972;27;20023;-47
2021/08/28 03:14:31;;;;;;;31.27;18.55;;;15.00;90.40;;;;;;5135700;27;20054;-48
2021/08/28 03:16:58;;;;;;;40.33;18.70;;;15.00;90.70;;;;;;5136015;27;20108;-48
2021/08/28 03:19:26;;;;;;;30.23;17.63;;;15.00;90.70;;;;;;5134547;27;20061;-49
2021/08/28 03:21:54;;;;;;;35.53;17.63;;;15.00;90.70;;;;;;5136027;27;20532;-49
2021/08/28 03:24:22;;;;;;;31.10;17.67;;;15.00;90.90;;;;;;5135731;27;20027;-50
2021/08/28 03:26:48;;;;;;;34.75;18.92;;;14.90;90.80;;;;;;5136035;27;20076;-49
2021/08/28 03:29:14;;;;;;;29.33;17.42;;;14.90;91.10;;;;;;5135705;27;20023;-47
2021/08/28 03:31:41;;;;;;;41.25;18.75;;;15.00;90.90;;;;;;5135621;27;20381;-51
2021/08/28 03:34:08;;;;;;;33.35;19.08;;;15.00;90.90;;;;;;5135370;27;20019;-47
2021/08/28 03:36:36;;;;;;;42.38;19.52;;;14.80;91.10;;;;;;5135589;27;20031;-48
2021/08/28 03:39:02;;;;;;;33.25;18.27;;;14.90;91.50;;;;;;5135700;27;20018;-49
2021/08/28 03:41:28;;;;;;;32.72;19.42;;;14.90;91.40;;;;;;5135704;27;20074;-49
2021/08/28 03:43:54;;;;;;;34.78;19.58;;;14.90;91.40;;;;;;5135341;27;20471;-52
2021/08/28 03:46:20;;;;;;;36.40;18.90;;;14.90;91.50;;;;;;5135670;27;20374;-51
2021/08/28 03:48:46;;;;;;;39.55;20.40;;;14.90;91.60;;;;;;5135343;27;20023;-53
2021/08/28 03:51:12;;;;;;;32.35;20.40;;;15.00;91.30;;;;;;5135559;27;20106;-47
2021/08/28 03:53:37;;;;;;;36.90;18.80;;;14.80;91.70;;;;;;5135132;27;20082;-47
2021/08/28 03:56:05;;;;;;;37.88;18.92;;;14.90;91.70;;;;;;5135249;27;20027;-47
2021/08/28 03:58:31;;;;;;;31.50;17.83;;;15.00;91.60;;;;;;5134927;27;20073;-51
2021/08/28 04:00:56;;;;;;;29.23;18.63;;;15.00;91.50;;;;;;5134396;27;20019;-51
2021/08/28 04:03:22;;;;;;;30.98;18.20;;;14.90;91.40;;;;;;5134256;27;20019;-48
2021/08/28 04:05:47;;;;;;;24.02;15.18;;;14.90;91.80;;;;;;5134522;27;20019;-50
2021/08/28 04:08:13;;;;;;;28.98;17.13;;;14.80;92.00;;;;;;5132917;27;20023;-48
2021/08/28 04:10:39;;;;;;;22.58;16.30;;;14.80;92.40;;;;;;5134528;27;20031;-48
2021/08/28 04:13:04;;;;;;;27.27;16.92;;;14.70;92.60;;;;;;5134201;27;20445;-48
2021/08/28 04:15:30;;;;;;;28.08;18.88;;;14.80;92.40;;;;;;5134372;27;20425;-52
2021/08/28 04:17:56;;;;;;;27.83;19.25;;;14.70;92.60;;;;;;5134020;27;20106;-51
2021/08/28 04:20:22;;;;;;;24.30;17.65;;;14.60;92.90;;;;;;5134287;27;20102;-49
2021/08/28 04:22:47;;;;;;;23.08;15.60;;;14.70;93.10;;;;;;5134431;27;20051;-48
2021/08/28 04:25:13;;;;;;;23.20;16.63;;;14.70;93.00;;;;;;5134366;27;20023;-51
2021/08/28 04:27:39;;;;;;;23.25;14.65;;;14.80;93.00;;;;;;5134768;27;20025;-48
2021/08/28 04:30:06;;;;;;;24.90;16.35;;;14.70;93.10;;;;;;5134177;27;20065;-47
2021/08/28 04:32:33;;;;;;;23.25;15.60;;;14.70;93.10;;;;;;5134072;27;20030;-47
2021/08/28 04:34:59;;;;;;;22.90;15.75;;;14.80;92.90;;;;;;5134395;27;20069;-49
2021/08/28 04:37:24;;;;;;;18.40;15.38;;;14.80;93.00;;;;;;5134607;27;20039;-47
2021/08/28 04:39:50;;;;;;;18.33;13.70;;;14.70;93.30;;;;;;5134550;27;20016;-50
2021/08/28 04:42:16;;;;;;;18.75;13.77;;;14.80;93.30;;;;;;5134300;27;20027;-50
2021/08/28 04:44:41;;;;;;;16.65;12.25;;;14.80;93.20;;;;;;5134230;27;20022;-48
2021/08/28 04:47:07;;;;;;;15.43;12.13;;;14.70;93.20;;;;;;5134256;27;20061;-52
2021/08/28 04:49:33;;;;;;;18.70;13.13;;;14.60;93.50;;;;;;5134407;27;20027;-53
2021/08/28 04:51:59;;;;;;;17.15;12.52;;;14.60;93.50;;;;;;5134181;27;20124;-48
2021/08/28 04:54:25;;;;;;;12.68;10.13;;;14.60;93.60;;;;;;5134030;27;20031;-53
2021/08/28 04:56:51;;;;;;;17.63;10.48;;;14.60;93.50;;;;;;5133851;27;20016;-48
2021/08/28 04:59:16;;;;;;;13.98;10.23;;;14.60;93.70;;;;;;5134301;27;20030;-48
2021/08/28 05:01:42;;;;;;;12.73;9.95;;;14.60;93.80;;;;;;5134026;27;20050;-51
2021/08/28 05:04:08;;;;;;;12.63;9.38;;;14.60;93.70;;;;;;5134287;27;20080;-51
2021/08/28 05:06:34;;;;;;;13.43;9.73;;;14.70;93.50;;;;;;5133934;27;20027;-47
2021/08/28 05:08:59;;;;;;;13.90;10.63;;;14.80;93.10;;;;;;5134008;27;20386;-48
2021/08/28 05:11:26;;;;;;;15.38;10.32;;;14.80;92.90;;;;;;5133859;27;20024;-50
2021/08/28 05:13:51;;;;;;;13.13;9.55;;;14.80;92.90;;;;;;5133839;28;20072;-47
2021/08/28 05:16:17;;;;;;;12.80;9.65;;;14.80;93.00;;;;;;5133504;27;20015;-49
2021/08/28 05:18:43;;;;;;;13.48;10.25;;;14.80;93.10;;;;;;5132490;28;20031;-48
2021/08/28 05:21:09;;;;;;;13.18;9.85;;;14.80;93.10;;;;;;5133659;28;20052;-50
2021/08/28 05:23:34;;;;;;;15.45;10.15;;;14.80;92.90;;;;;;5133733;28;20027;-50
2021/08/28 05:26:00;;;;;;;14.45;10.23;;;14.80;93.30;;;;;;5134071;28;20362;-48
2021/08/28 05:28:26;;;;;;;16.92;10.68;;;14.80;93.20;;;;;;5133685;28;20030;-51
2021/08/28 05:30:52;;;;;;;11.80;9.82;;;14.80;93.20;;;;;;5133709;28;20023;-49
2021/08/28 05:33:17;;;;;;;16.00;10.10;;;14.80;93.20;;;;;;5133663;28;20027;-49
2021/08/28 05:35:43;;;;;;;11.60;9.13;;;14.80;93.30;;;;;;5133987;28;20023;-49
2021/08/28 05:38:09;;;;;;;10.85;9.20;;;14.80;93.50;;;;;;5133670;28;20026;-50
2021/08/28 05:40:35;;;;;;;13.65;11.13;;;14.80;93.10;;;;;;5133966;28;20020;-49
2021/08/28 05:43:01;;;;;;;14.63;10.63;;;14.80;93.30;;;;;;5132443;28;20022;-50
2021/08/28 05:45:26;;;;;;;11.73;9.35;;;14.80;93.40;;;;;;5134303;28;20051;-49
2021/08/28 05:47:52;;;;;;;12.43;10.00;;;14.90;93.40;;;;;;5133798;28;20359;-49
2021/08/28 05:50:18;;;;;;;12.10;9.30;;;14.90;93.00;;;;;;5133526;28;20463;-52
2021/08/28 05:52:44;;;;;;;12.90;8.27;;;14.90;93.00;;;;;;5133463;28;20072;-47
2021/08/28 05:55:13;;;;;;;11.88;9.38;;;14.90;92.90;;;;;;5133404;28;20071;-49
2021/08/28 05:57:39;;;;;;;16.17;9.95;;;14.90;92.90;;;;;;5133943;28;20038;-48
2021/08/28 06:00:06;;;;;;;14.35;9.70;;;14.90;93.10;;;;;;5133587;28;20027;-48
2021/08/28 06:02:31;;;;;;;14.95;10.38;;;14.90;93.20;;;;;;5133528;28;20042;-53
2021/08/28 06:04:57;;;;;;;18.77;12.27;;;15.10;93.10;;;;;;5133757;28;20027;-47
2021/08/28 06:07:23;;;;;;;14.30;11.85;;;15.10;92.70;;;;;;5133588;28;20030;-48
2021/08/28 06:09:49;;;;;;;19.83;12.50;;;15.20;92.70;;;;;;5133390;28;20023;-49
2021/08/28 06:12:14;;;;;;;14.73;11.88;;;15.20;92.70;;;;;;5133353;28;20024;-50
2021/08/28 06:14:40;;;;;;;18.23;11.80;;;15.30;92.50;;;;;;5133023;28;20053;-48
2021/08/28 06:17:06;;;;;;;16.30;11.93;;;15.50;91.90;;;;;;5133390;28;20328;-49
2021/08/28 06:19:31;;;;;;;18.70;12.07;;;15.70;91.50;;;;;;5133014;28;20023;-50
2021/08/28 06:21:57;;;;;;;15.90;12.25;;;15.70;91.20;;;;;;5132997;28;20020;-49
2021/08/28 06:24:22;;;;;;;12.00;9.82;;;15.70;91.30;;;;;;5133412;28;20102;-49
2021/08/28 06:26:48;;;;;;;11.23;9.35;;;15.70;91.00;;;;;;5133555;28;20107;-49
2021/08/28 06:29:14;;;;;;;13.73;9.52;;;15.70;90.80;;;;;;5134308;27;20035;-50
2021/08/28 06:31:40;;;;;;;16.23;10.05;;;15.70;90.80;;;;;;5136853;27;20023;-48
2021/08/28 06:34:05;;;;;;;14.70;9.55;;;15.80;90.50;;;;;;5136596;27;20038;-49
2021/08/28 06:36:31;;;;;;;18.60;10.93;;;15.80;90.90;;;;;;5136738;27;20462;-50
2021/08/28 06:38:57;;;;;;;14.07;9.40;;;15.80;90.60;;;;;;5136850;27;20106;-51
2021/08/28 06:41:22;;;;;;;13.27;9.20;;;15.80;90.50;;;;;;5137045;27;20023;-49
2021/08/28 06:43:48;;;;;;;12.93;10.10;;;15.70;90.50;;;;;;5136796;27;20065;-53
2021/08/28 06:46:13;;;;;;;12.40;8.35;;;15.60;90.80;;;;;;5136560;27;20050;-50
2021/08/28 06:48:40;;;;;;;19.58;9.93;;;15.40;91.10;;;;;;5136387;27;20049;-48
2021/08/28 06:51:05;;;;;;;12.95;9.10;;;15.30;92.00;;;;;;5136392;27;20046;-50
2021/08/28 06:53:31;;;;;;;11.48;8.52;;;15.30;92.30;;;;;;5135972;27;20444;-51
2021/08/28 06:55:57;;;;;;;19.48;10.85;;;15.20;92.40;;;;;;5136609;27;20118;-49
2021/08/28 06:58:22;;;;;;;15.63;9.98;;;15.20;92.50;;;;;;5136490;27;20030;-50
2021/08/28 07:00:48;;;;;;;17.95;11.10;;;15.20;92.60;;;;;;5136371;27;20481;-47
2021/08/28 07:03:14;;;;;;;17.48;11.07;;;15.20;92.60;;;;;;5136146;27;20451;-51
2021/08/28 07:05:40;;;;;;;16.30;12.38;;;15.30;92.80;;;;;;5136653;27;20454;-49
2021/08/28 07:08:05;;;;;;;17.77;11.93;;;15.30;92.90;;;;;;5136335;27;20023;-51
2021/08/28 07:10:31;;;;;;;19.88;11.55;;;15.40;92.30;;;;;;5136259;27;20467;-48
2021/08/28 07:12:57;;;;;;;18.70;11.68;;;15.40;92.20;;;;;;5134462;27;20050;-48
2021/08/28 07:15:22;;;;;;;17.05;11.13;;;15.50;92.20;;;;;;5136034;27;20050;-48
2021/08/28 07:17:48;;;;;;;12.63;9.85;;;15.60;91.60;;;;;;5136149;27;20019;-48
2021/08/28 07:20:14;;;;;;;14.93;11.48;;;15.60;91.50;;;;;;5135892;27;20024;-49
2021/08/28 07:22:40;;;;;;;22.20;10.73;;;15.60;91.70;;;;;;5135815;27;20023;-48
2021/08/28 07:25:06;;;;;;;15.75;9.77;;;15.70;91.10;;;;;;5135975;27;20019;-48
2021/08/28 07:27:32;;;;;;;14.88;10.15;;;15.60;90.90;;;;;;5136175;27;20031;-50
2021/08/28 07:29:58;;;;;;;15.77;10.35;;;15.60;91.20;;;;;;5135949;27;20462;-49
2021/08/28 07:32:23;;;;;;;13.65;10.70;;;15.60;91.70;;;;;;5135400;27;20463;-47
2021/08/28 07:34:50;;;;;;;15.23;10.55;;;15.60;91.40;;;;;;5135840;27;20082;-51
2021/08/28 07:37:16;;;;;;;16.55;10.70;;;15.60;91.90;;;;;;5135612;27;20031;-55
2021/08/28 07:39:42;;;;;;;17.05;10.23;;;15.60;91.70;;;;;;5135370;27;20098;-48
2021/08/28 07:42:08;;;;;;;15.82;10.30;;;15.60;91.60;;;;;;5135693;27;20030;-50
2021/08/28 07:44:33;;;;;;;18.27;10.65;;;15.70;92.00;;;;;;5135887;27;20486;-49
2021/08/28 07:46:59;;;;;;;21.25;11.43;;;15.70;91.60;;;;;;5135226;27;20019;-50
2021/08/28 07:49:25;;;;;;;16.80;11.30;;;15.80;91.50;;;;;;5135529;27;20042;-49
2021/08/28 07:51:50;;;;;;;17.88;10.10;;;15.90;91.10;;;;;;5133503;27;20386;-48
2021/08/28 07:54:16;;;;;;;12.43;8.77;;;16.00;91.10;;;;;;5135149;27;20459;-48
2021/08/28 07:56:42;;;;;;;13.93;9.60;;;16.10;90.90;;;;;;5135339;27;20124;-51
2021/08/28 07:59:08;;;;;;;14.40;9.02;;;16.20;90.30;;;;;;5135380;27;20019;-39
2021/08/28 08:01:33;;;;;;;18.15;7.20;;;16.30;90.00;;;;;;5133807;27;20034;-38
2021/08/28 08:03:59;;;;;;;10.10;7.75;;;16.30;89.10;;;;;;5135316;27;20443;-38
2021/08/28 08:06:25;;;;;;;10.32;5.63;;;16.60;88.70;;;;;;5135369;27;20027;-38
2021/08/28 08:08:51;;;;;;;8.55;6.43;;;16.70;88.10;;;;;;5134975;27;20097;-39
2021/08/28 08:11:17;;;;;;;13.95;5.78;;;17.20;88.30;;;;;;5135335;27;20057;-37
2021/08/28 08:13:45;;;;;;;10.75;5.63;;;17.40;87.20;;;;;;5135208;27;20450;-37
2021/08/28 08:16:11;;;;;;;11.10;5.97;;;17.20;86.90;;;;;;5134491;27;20023;-37
2021/08/28 08:18:38;;;;;;;10.77;5.80;;;16.90;86.80;;;;;;5134648;27;20073;-37
2021/08/28 08:21:04;;;;;;;8.75;5.25;;;16.90;87.50;;;;;;5134826;27;20466;-38
2021/08/28 08:23:32;;;;;;;10.48;7.50;;;16.80;87.10;;;;;;5134490;27;20080;-37
2021/08/28 08:25:57;;;;;;;8.98;6.40;;;16.80;87.60;;;;;;5134676;27;20023;-38
2021/08/28 08:28:23;;;;;;;10.50;6.38;;;16.70;87.70;;;;;;5134925;27;20497;-37
2021/08/28 08:30:49;;;;;;;7.18;4.85;;;16.90;86.10;;;;;;5133421;27;20028;-38
2021/08/28 08:33:15;;;;;;;8.88;5.13;;;17.00;85.60;;;;;;5135038;27;20027;-38
2021/08/28 08:35:41;;;;;;;12.32;6.57;;;17.20;84.10;;;;;;5133760;27;20019;-49
2021/08/28 08:38:07;;;;;;;8.48;5.78;;;17.20;85.80;;;;;;5133986;27;20023;-48
2021/08/28 08:40:33;;;;;;;7.55;5.18;;;17.30;83.70;;;;;;5135298;27;20421;-49
2021/08/28 08:43:04;;;;;;;9.85;5.25;;;17.50;83.50;;;;;;5133171;27;20114;-48
2021/08/28 08:45:31;;;;;;;7.30;4.50;;;17.70;82.90;;;;;;5134230;27;20444;-50
2021/08/28 08:47:57;;;;;;;7.15;5.13;;;17.80;82.40;;;;;;5133169;27;20038;-48
2021/08/28 08:50:24;;;;;;;7.43;4.57;;;17.70;83.20;;;;;;5132981;27;20073;-52
2021/08/28 08:52:53;;;;;;;9.20;5.32;;;17.30;82.20;;;;;;5133459;27;20229;-51
2021/08/28 08:55:21;;;;;;;14.20;5.68;;;17.00;84.00;;;;;;5134279;27;20023;-50
2021/08/28 08:57:47;;;;;;;8.88;5.10;;;17.00;84.10;;;;;;5134024;27;20019;-49
2021/08/28 09:00:14;;;;;;;7.93;5.88;;;16.90;84.20;;;;;;5134629;27;20043;-48
2021/08/28 09:02:43;;;;;;;9.40;6.03;;;16.90;84.20;;;;;;5133370;27;20026;-53
2021/08/28 09:05:10;;;;;;;9.30;5.72;;;17.00;84.70;;;;;;5134834;27;20031;-52
2021/08/28 09:07:36;;;;;;;12.38;6.90;;;17.10;84.80;;;;;;5134061;27;20487;-52
2021/08/28 09:10:01;;;;;;;9.82;6.70;;;17.20;84.60;;;;;;5133731;27;20081;-51
2021/08/28 09:12:38;;;;;;;7.88;5.18;;;17.10;84.70;;;;;;5134146;27;20019;-49
2021/08/28 09:15:05;;;;;;;11.75;6.00;;;17.20;83.80;;;;;;5134765;27;20474;-48
2021/08/28 09:17:31;;;;;;;8.50;5.47;;;17.30;83.90;;;;;;5133769;28;20514;-50
2021/08/28 09:19:57;;;;;;;8.57;6.25;;;17.30;83.90;;;;;;5133838;28;20179;-51
2021/08/28 09:22:33;;;;;;;7.15;5.28;;;17.70;83.20;;;;;;5133848;28;20379;-50
2021/08/28 09:25:03;;;;;;;12.48;4.90;;;18.00;81.90;;;;;;5133690;28;20037;-50
2021/08/28 09:27:36;;;;;;;9.07;5.50;;;17.90;80.60;;;;;;5133372;28;20129;-50
2021/08/28 09:30:13;;;;;;;7.55;5.93;;;18.00;81.00;;;;;;5133862;28;20031;-51
2021/08/28 09:32:45;;;;;;;12.93;6.70;;;18.20;81.60;;;;;;5134264;28;20042;-51
2021/08/28 09:35:11;;;;;;;7.72;4.85;;;18.20;80.60;;;;;;5131570;28;20050;-48
2021/08/28 09:37:37;;;;;;;8.60;5.10;;;18.10;80.00;;;;;;5133052;28;20530;-50
2021/08/28 09:40:05;;;;;;;9.95;5.30;;;17.80;80.70;;;;;;5134256;28;20084;-53
2021/08/28 09:42:31;;;;;;;4.93;3.47;;;17.70;81.50;;;;;;5133310;28;20020;-54
2021/08/28 09:44:56;;;;;;;5.85;3.55;;;17.50;83.40;;;;;;5133313;28;20046;-50
2021/08/28 09:47:25;;;;;;;4.82;3.50;;;17.20;84.70;;;;;;5133404;28;20491;-49
2021/08/28 09:49:52;;;;;;;6.18;3.60;;;17.00;85.50;;;;;;5133006;28;20471;-50
2021/08/28 09:52:21;;;;;;;4.47;3.35;;;17.00;85.90;;;;;;5133184;28;20079;-52
2021/08/28 09:54:47;;;;;;;5.82;3.70;;;16.90;85.90;;;;;;5133220;28;20055;-53
2021/08/28 09:57:13;;;;;;;4.53;3.25;;;16.80;87.00;;;;;;5133448;28;20034;-51
2021/08/28 09:59:38;;;;;;;3.40;3.10;;;16.60;87.20;;;;;;5133670;28;20374;-52
2021/08/28 10:02:07;;;;;;;3.97;3.42;;;16.60;87.70;;;;;;5131511;28;20059;-49
2021/08/28 10:04:50;;;;;;;4.70;3.35;;;16.70;87.40;;;;;;5136844;27;20389;-53
2021/08/28 10:07:21;;;;;;;9.82;3.95;;;16.80;86.90;;;;;;5136948;27;20027;-50
2021/08/28 10:09:48;;;;;;;6.68;3.85;;;16.60;87.20;;;;;;5136992;27;20027;-48
2021/08/28 10:12:17;;;;;;;4.60;3.38;;;16.70;87.30;;;;;;5136850;27;20023;-48
2021/08/28 10:14:44;;;;;;;4.55;3.88;;;16.70;86.70;;;;;;5136859;27;20031;-48
2021/08/28 10:17:10;;;;;;;4.20;3.17;;;16.80;86.30;;;;;;5137828;27;20475;-49
2021/08/28 10:19:36;;;;;;;3.92;3.45;;;16.80;86.00;;;;;;5138262;27;20035;-51
2021/08/28 10:22:02;;;;;;;4.18;3.25;;;16.80;86.50;;;;;;5136807;27;20019;-48
2021/08/28 10:24:28;;;;;;;8.93;4.05;;;16.80;86.50;;;;;;5136741;27;20084;-48
2021/08/28 10:26:54;;;;;;;6.43;3.40;;;16.80;86.70;;;;;;5136731;27;20103;-49
2021/08/28 10:29:21;;;;;;;5.30;3.40;;;16.80;86.70;;;;;;5136662;27;20189;-48
2021/08/28 10:31:47;;;;;;;5.40;3.83;;;16.70;87.00;;;;;;5135606;27;20065;-51
2021/08/28 10:34:14;;;;;;;6.43;4.40;;;16.80;86.90;;;;;;5136287;27;20024;-48
2021/08/28 10:36:40;;;;;;;4.95;4.10;;;16.80;86.80;;;;;;5135134;27;20067;-48
2021/08/28 10:39:07;;;;;;;7.60;4.25;;;16.90;86.50;;;;;;5134623;27;20045;-49
2021/08/28 10:41:35;;;;;;;8.27;4.25;;;17.10;85.80;;;;;;5135842;27;20463;-48
2021/08/28 10:44:02;;;;;;;4.32;3.65;;;17.50;84.20;;;;;;5135987;27;20054;-49
2021/08/28 10:46:31;;;;;;;9.38;3.83;;;17.80;82.90;;;;;;5136223;27;20038;-50
2021/08/28 10:48:59;;;;;;;8.18;3.20;;;17.80;82.90;;;;;;5136007;27;20034;-52
2021/08/28 10:51:33;;;;;;;5.53;4.10;;;17.70;83.00;;;;;;5135786;27;20505;-50
2021/08/28 10:54:06;;;;;;;6.45;3.00;;;17.70;83.00;;;;;;5137163;27;20371;-52
2021/08/28 10:56:36;;;;;;;5.15;3.80;;;18.20;82.00;;;;;;5136603;27;20489;-53
2021/08/28 10:59:34;;;;;;;4.45;3.40;;;18.50;80.70;;;;;;5134929;27;20110;-50
2021/08/28 11:02:13;;;;;;;5.15;3.83;;;18.50;79.90;;;;;;5136353;27;20046;-48
2021/08/28 11:04:44;;;;;;;6.85;3.55;;;18.50;80.00;;;;;;5135428;27;20023;-49
2021/08/28 11:07:22;;;;;;;6.50;4.40;;;18.60;78.70;;;;;;5135691;27;20474;-50
2021/08/28 11:10:27;;;;;;;6.35;4.53;;;18.40;78.60;;;;;;5135926;27;20470;-48
2021/08/28 11:12:57;;;;;;;5.35;3.97;;;18.60;78.10;;;;;;5052139;28;20491;-48
2021/08/28 11:15:34;;;;;;;5.55;3.97;;;18.90;76.20;;;;;;5051356;28;20507;-48
2021/08/28 11:18:02;;;;;;;6.30;4.25;;;18.80;76.10;;;;;;5100063;27;20487;-47
2021/08/28 11:20:50;;;;;;;4.97;4.10;;;18.80;75.60;;;;;;5137043;27;20015;-51
2021/08/28 11:23:18;;;;;;;8.90;4.22;;;18.90;75.90;;;;;;5133809;27;20024;-50
2021/08/28 11:25:46;;;;;;;6.43;5.03;;;19.50;74.40;;;;;;5135229;27;20030;-48
2021/08/28 11:28:13;;;;;;;5.90;4.38;;;19.80;72.60;;;;;;5133791;27;20019;-48
2021/08/28 11:30:45;;;;;;;8.63;3.80;;;20.20;71.20;;;;;;5135538;27;20034;-47
2021/08/28 11:33:11;;;;;;;9.00;3.70;;;21.40;67.80;;;;;;5134777;27;20019;-50
2021/08/28 11:35:41;;;;;;;7.22;4.85;;;21.90;63.90;;;;;;5133646;27;20020;-51
2021/08/28 11:38:09;;;;;;;7.88;4.28;;;20.20;69.80;;;;;;5135036;27;20046;-48
2021/08/28 11:40:36;;;;;;;7.43;3.92;;;19.70;72.80;;;;;;5134280;27;20028;-48
2021/08/28 11:43:09;;;;;;;10.15;5.45;;;19.30;73.40;;;;;;5135259;27;20024;-48
2021/08/28 11:45:37;;;;;;;5.45;4.80;;;19.00;74.90;;;;;;5134999;27;20030;-47
2021/08/28 11:48:14;;;;;;;6.13;4.50;;;18.70;75.30;;;;;;5135005;27;20023;-37
2021/08/28 11:50:41;;;;;;;6.10;4.72;;;18.70;75.50;;;;;;5134306;27;20027;-39
2021/08/28 11:53:08;;;;;;;7.50;4.90;;;18.80;74.70;;;;;;5132803;27;20119;-37
2021/08/28 11:55:35;;;;;;;5.47;4.00;;;19.00;74.70;;;;;;5134438;27;20112;-37
2021/08/28 11:58:08;;;;;;;7.63;4.57;;;19.40;72.70;;;;;;5134476;27;20027;-37
2021/08/28 12:00:35;;;;;;;6.28;4.70;;;19.90;71.30;;;;;;5134652;27;20019;-37
2021/08/28 12:03:06;;;;;;;5.95;4.47;;;20.40;68.10;;;;;;5132862;27;20015;-37
2021/08/28 12:05:32;;;;;;;4.72;4.03;;;20.50;67.10;;;;;;5134483;27;20106;-37
2021/08/28 12:07:58;;;;;;;7.07;4.10;;;20.20;68.00;;;;;;5133391;27;20027;-37
2021/08/28 12:10:25;;;;;;;3.92;3.53;;;20.20;68.30;;;;;;5134640;27;20023;-37
2021/08/28 12:12:56;;;;;;;7.20;4.47;;;20.50;67.10;;;;;;5116180;27;20027;-38
2021/08/28 12:15:23;;;;;;;8.88;4.53;;;20.80;67.30;;;;;;5133770;27;20077;-37
2021/08/28 12:17:53;;;;;;;6.70;4.28;;;21.00;65.30;;;;;;5133966;27;20020;-38
2021/08/28 12:20:24;;;;;;;6.38;4.70;;;21.00;63.80;;;;;;5132781;27;20020;-37
2021/08/28 12:22:52;;;;;;;5.95;4.90;;;20.70;65.60;;;;;;5132606;27;20487;-38
2021/08/28 12:25:17;;;;;;;8.45;4.95;;;20.70;66.10;;;;;;5132846;27;20020;-38
2021/08/28 12:27:45;;;;;;;9.68;5.68;;;20.70;66.90;;;;;;5134324;27;20034;-38
2021/08/28 12:30:11;;;;;;;8.85;6.22;;;20.40;67.50;;;;;;5134043;27;20030;-38
2021/08/28 12:32:36;;;;;;;7.78;5.15;;;19.80;70.90;;;;;;5132984;27;20027;-37
2021/08/28 12:35:02;;;;;;;9.48;4.95;;;19.20;73.60;;;;;;5133948;27;20075;-37
2021/08/28 12:37:32;;;;;;;10.45;5.80;;;18.80;75.10;;;;;;5134260;27;20029;-37